Artesia Wells, Texas
Current Conditions -  °F | °C
As of 4:53 AM on Wednesday 22 Oct 2014 (Local Time) from KCOT Reporting Station
Clear Clear  
Wind Chill: 21°   Ceiling: Unl
Heat Index: 21°   Visibility: 10mi
Dew Point: 16°   Wind: 7mph
Humidity: 73%   Direction: 90°E
Pressure: 30.01"   Gusts: NA
Location:  28.28°N, 99.29°W
Report Text: KCOT 220953Z AUTO 09006KT 10SM CLR 21/16 A3001 RMK AO2 SLP155 T02110161 $
Loading
Personal Weather Stations






























Interactive Weather Map New forecast layout! Learn more

10-Day Weather Forecast

Advertisements
Track Severe Weather on mobile